Time;durP1;ratioP1;P1;durP2;ratioP2;P2;SDS_P1;SDS_P2;PMS_P1;PMS_P2;Temp;Humidity;BMP_temperature;BMP_pressure;BME280_temperature;BME280_humidity;BME280_pressure;Samples;Min_cycle;Max_cycle;Signal;HPM_P1;HPM_P2
2023/10/13 00:02:21;;;;;;;2.00;1.80;;;;;;;16.69;91.79;99759.47;5092608;28;20109;-72
2023/10/13 00:05:01;;;;;;;3.05;2.70;;;;;;;16.67;91.72;99747.50;5094454;28;20052;-71
2023/10/13 00:07:41;;;;;;;1.95;1.77;;;;;;;16.66;91.60;99753.50;5093896;28;20044;-73
2023/10/13 00:10:11;;;;;;;1.50;1.08;;;;;;;16.66;92.12;99758.66;5094194;28;20044;-71
2023/10/13 00:12:49;;;;;;;2.05;1.42;;;;;;;16.68;92.00;99764.63;5093538;28;20048;-71
2023/10/13 00:15:21;;;;;;;2.67;1.85;;;;;;;16.67;91.88;99761.22;5093516;28;20127;-74
2023/10/13 00:17:52;;;;;;;5.88;3.17;;;;;;;16.69;92.25;99748.28;5093676;28;20044;-73
2023/10/13 00:20:35;;;;;;;3.40;2.38;;;;;;;16.69;92.23;99756.03;5094328;28;20070;-74
2023/10/13 00:23:05;;;;;;;1.88;1.55;;;;;;;16.64;91.92;99748.41;5093848;28;20084;-71
2023/10/13 00:25:43;;;;;;;7.80;2.10;;;;;;;16.62;92.17;99746.75;5093432;28;20558;-75
2023/10/13 00:28:22;;;;;;;3.55;1.95;;;;;;;16.63;92.41;99740.69;5093433;28;20040;-71
2023/10/13 00:30:53;;;;;;;4.05;2.80;;;;;;;16.63;92.27;99744.13;5093488;28;20052;-71
2023/10/13 00:33:22;;;;;;;;;;;;;;;16.64;92.30;99737.25;5093828;28;20055;-71
2023/10/13 00:35:52;;;;;;;4.80;1.90;;;;;;;16.63;92.28;99722.66;5092204;28;19924;-76
2023/10/13 00:38:23;;;;;;;3.13;2.33;;;;;;;16.68;92.26;99731.13;5093177;28;20550;-72
2023/10/13 00:40:53;;;;;;;2.67;2.30;;;;;;;16.66;92.28;99722.59;5093225;28;20093;-72
2023/10/13 00:43:34;;;;;;;2.85;1.88;;;;;;;16.64;92.18;99734.66;5094786;28;20048;-72
2023/10/13 00:46:07;;;;;;;1.60;1.13;;;;;;;16.67;92.35;99729.44;5096049;28;20036;-71
2023/10/13 00:48:51;;;;;;;1.77;1.67;;;;;;;16.65;92.12;99711.44;5096369;28;20047;-75
2023/10/13 00:51:32;;;;;;;3.13;1.45;;;;;;;16.64;92.45;99714.91;5097286;28;20386;-72
2023/10/13 00:54:07;;;;;;;3.13;1.80;;;;;;;16.60;92.35;99717.59;5096985;28;20048;-73
2023/10/13 00:56:40;;;;;;;2.10;1.90;;;;;;;16.59;92.51;99716.75;5096956;28;20101;-76
2023/10/13 00:59:13;;;;;;;3.88;3.20;;;;;;;16.56;92.58;99729.69;5096978;28;20131;-74
2023/10/13 01:01:45;;;;;;;2.55;1.63;;;;;;;16.57;92.58;99733.97;5096057;28;20059;-71
2023/10/13 01:04:14;;;;;;;6.45;2.53;;;;;;;16.56;92.34;99731.41;5096763;28;20101;-73
2023/10/13 01:06:45;;;;;;;2.92;2.53;;;;;;;16.54;92.55;99725.47;5096947;28;20044;-76
2023/10/13 01:09:14;;;;;;;4.93;2.88;;;;;;;16.52;92.68;99732.38;5096579;28;20105;-73
2023/10/13 01:11:46;;;;;;;2.65;1.95;;;;;;;16.54;92.74;99743.50;5095434;28;20036;-74
2023/10/13 01:14:17;;;;;;;3.35;2.65;;;;;;;16.55;92.71;99740.06;5096543;28;20044;-73
2023/10/13 01:16:47;;;;;;;2.33;2.10;;;;;;;16.59;92.72;99736.50;5096639;28;20131;-71
2023/10/13 01:19:19;;;;;;;1.27;1.17;;;;;;;16.61;92.80;99732.16;5096811;28;20048;-70
2023/10/13 01:21:49;;;;;;;2.30;1.90;;;;;;;16.59;92.50;99732.22;5096485;28;20101;-71
2023/10/13 01:24:20;;;;;;;2.30;1.67;;;;;;;16.56;92.54;99744.31;5096430;28;20379;-71
2023/10/13 01:26:54;;;;;;;1.98;1.52;;;;;;;16.52;92.58;99756.44;5096373;28;20145;-74
2023/10/13 01:29:28;;;;;;;2.55;1.00;;;;;;;16.50;92.62;99762.47;5096345;28;20036;-76
2023/10/13 01:31:57;;;;;;;2.67;2.45;;;;;;;16.50;92.58;99757.31;5096065;28;20052;-72
2023/10/13 01:34:26;;;;;;;1.35;1.23;;;;;;;16.51;92.49;99753.84;5095641;28;20444;-72
2023/10/13 01:36:56;;;;;;;2.53;2.33;;;;;;;16.49;92.56;99755.59;5095443;28;20067;-73
2023/10/13 01:39:26;;;;;;;3.15;1.98;;;;;;;16.46;92.56;99766.84;5096801;28;20043;-74
2023/10/13 01:41:56;;;;;;;1.60;1.42;;;;;;;16.47;92.56;99754.81;5094829;28;20083;-72
2023/10/13 01:44:26;;;;;;;0.93;0.88;;;;;;;16.42;92.60;99754.06;5094957;28;20505;-72
2023/10/13 01:46:55;;;;;;;3.25;2.10;;;;;;;16.39;92.63;99752.41;5094745;28;20058;-74
2023/10/13 01:49:23;;;;;;;2.78;2.55;;;;;;;16.39;92.40;99743.81;5078064;28;20037;-73
2023/10/13 01:51:52;;;;;;;2.15;1.95;;;;;;;16.32;92.41;99744.84;5095754;28;20040;-75
2023/10/13 01:54:21;;;;;;;4.43;1.50;;;;;;;16.28;92.47;99730.34;5094235;28;20040;-71
2023/10/13 01:56:51;;;;;;;3.88;2.00;;;;;;;16.26;92.68;99737.28;5096015;28;20481;-73
2023/10/13 01:59:19;;;;;;;1.80;1.48;;;;;;;16.23;92.62;99716.72;5094583;28;20130;-72
2023/10/13 02:01:51;;;;;;;1.63;1.52;;;;;;;16.21;92.53;99718.50;5094631;28;20064;-73
2023/10/13 02:04:21;;;;;;;2.35;1.45;;;;;;;16.26;92.95;99726.97;5094837;28;20044;-72
2023/10/13 02:06:52;;;;;;;1.98;1.77;;;;;;;16.28;92.72;99720.06;5095509;28;20044;-72
2023/10/13 02:09:25;;;;;;;4.43;2.88;;;;;;;16.31;92.85;99720.84;5096155;28;20154;-73
2023/10/13 02:11:56;;;;;;;1.40;1.25;;;;;;;16.31;92.98;99726.00;5094684;28;20557;-74
2023/10/13 02:14:25;;;;;;;0.93;0.88;;;;;;;16.29;93.03;99732.88;5095777;28;20048;-74
2023/10/13 02:17:12;;;;;;;8.20;2.53;;;;;;;16.29;92.75;99721.75;5095407;28;20470;-73
2023/10/13 02:19:44;;;;;;;3.28;2.40;;;;;;;16.33;92.97;99723.38;5077494;28;20055;-73
2023/10/13 02:22:26;;;;;;;4.40;2.67;;;;;;;16.36;93.07;99720.72;5095607;28;20052;-74
2023/10/13 02:25:01;;;;;;;3.55;2.38;;;;;;;16.39;93.32;99723.22;5111214;28;20068;-73
2023/10/13 02:27:40;;;;;;;2.08;1.75;;;;;;;16.42;92.80;99723.16;5094037;28;20052;-73
2023/10/13 02:30:14;;;;;;;2.38;2.17;;;;;;;16.44;92.98;99721.38;5095108;28;20498;-75
2023/10/13 02:32:44;;;;;;;4.00;2.78;;;;;;;16.44;93.07;99723.94;5094875;28;20135;-74
2023/10/13 02:35:17;;;;;;;1.70;1.42;;;;;;;16.42;92.71;99718.84;5093801;28;20401;-74
2023/10/13 02:37:54;;;;;;;1.55;1.25;;;;;;;16.42;92.76;99710.25;5095297;28;20044;-72
2023/10/13 02:40:23;;;;;;;3.78;2.08;;;;;;;16.39;92.52;99718.91;5094952;28;20410;-74
2023/10/13 02:42:54;;;;;;;3.58;1.75;;;;;;;16.37;92.70;99719.81;5094866;28;20505;-73
2023/10/13 02:45:25;;;;;;;3.65;1.80;;;;;;;16.32;92.54;99724.25;5093874;28;20043;-74
2023/10/13 02:48:10;;;;;;;5.70;1.95;;;;;;;16.31;92.53;99719.97;5094965;28;20562;-72
2023/10/13 02:50:45;;;;;;;4.38;1.95;;;;;;;16.27;92.71;99732.06;5094735;28;20485;-73
2023/10/13 02:53:13;;;;;;;1.08;0.93;;;;;;;16.29;92.93;99737.22;5094656;28;20071;-72
2023/10/13 02:55:55;;;;;;;1.92;1.65;;;;;;;16.32;92.50;99731.97;5094427;28;20047;-72
2023/10/13 02:58:37;;;;;;;1.70;1.60;;;;;;;16.29;92.70;99730.31;5094815;28;20456;-73
2023/10/13 03:01:17;;;;;;;2.17;1.98;;;;;;;16.30;92.66;99723.44;5094621;28;20118;-72
2023/10/13 03:03:51;;;;;;;2.35;1.83;;;;;;;16.25;92.48;99720.09;5094758;28;20077;-73
2023/10/13 03:06:24;;;;;;;4.60;0.98;;;;;;;16.27;92.85;99718.38;5094688;28;20115;-73
2023/10/13 03:08:52;;;;;;;1.92;1.77;;;;;;;16.26;92.58;99716.66;5094300;28;20131;-72
2023/10/13 03:11:24;;;;;;;1.60;1.50;;;;;;;16.21;92.84;99713.34;5093102;28;20052;-73
2023/10/13 03:13:53;;;;;;;1.90;1.48;;;;;;;16.20;92.69;99721.94;5093357;28;20040;-73
2023/10/13 03:16:22;;;;;;;1.55;1.35;;;;;;;16.23;92.64;99719.31;5094578;28;20160;-73
2023/10/13 03:18:55;;;;;;;2.47;1.63;;;;;;;16.23;92.72;99727.03;5094173;28;20044;-71
2023/10/13 03:21:31;;;;;;;1.45;1.35;;;;;;;16.22;92.65;99725.34;5093042;28;20036;-73
2023/10/13 03:24:04;;;;;;;0.95;0.93;;;;;;;16.22;92.93;99725.34;5095243;28;20047;-72
2023/10/13 03:26:36;;;;;;;1.55;1.35;;;;;;;16.24;92.52;99728.75;5092857;28;20080;-74
2023/10/13 03:29:13;;;;;;;2.00;1.10;;;;;;;16.21;92.71;99723.66;5093927;28;20516;-75
2023/10/13 03:31:45;;;;;;;4.68;2.08;;;;;;;16.22;92.84;99730.50;5093629;28;20048;-75
2023/10/13 03:34:15;;;;;;;2.20;1.90;;;;;;;16.19;92.49;99746.03;5094508;28;20044;-71
2023/10/13 03:39:28;;;;;;;2.33;2.13;;;;;;;16.16;92.45;99725.47;5093929;28;20044;-72
2023/10/13 03:41:59;;;;;;;1.58;1.10;;;;;;;16.14;92.86;99720.38;5093968;28;20044;-71
2023/10/13 03:44:31;;;;;;;2.42;1.33;;;;;;;16.18;92.63;99721.13;5093917;28;20063;-73
2023/10/13 03:47:17;;;;;;;1.67;1.58;;;;;;;16.14;92.41;99711.78;5094097;28;20391;-72
2023/10/13 03:49:51;;;;;;;3.63;2.10;;;;;;;16.10;92.70;99724.72;5093975;28;20070;-71
2023/10/13 03:52:22;;;;;;;2.13;1.50;;;;;;;16.10;92.83;99732.47;5093707;28;20059;-71
2023/10/13 03:54:51;;;;;;;4.13;2.58;;;;;;;16.09;92.94;99741.09;5093999;28;20094;-71
2023/10/13 03:57:21;;;;;;;1.50;1.40;;;;;;;16.09;92.66;99735.94;5093939;28;20043;-71
2023/10/13 03:59:53;;;;;;;4.35;2.78;;;;;;;16.06;92.77;99736.00;5093934;28;20520;-73
2023/10/13 04:02:26;;;;;;;1.85;1.40;;;;;;;16.03;92.50;99737.78;5093853;28;20054;-73
2023/10/13 04:05:07;;;;;;;2.45;1.85;;;;;;;16.02;92.41;99734.38;5094469;28;20048;-73
2023/10/13 04:07:41;;;;;;;1.00;0.90;;;;;;;15.95;92.47;99735.38;5093774;28;20052;-70
2023/10/13 04:15:41;;;;;;;3.70;2.05;;;;;;;15.91;92.59;99733.75;5093581;28;20093;-71
2023/10/13 04:18:33;;;;;;;1.90;1.63;;;;;;;15.91;92.77;99733.75;5095127;28;20036;-71
2023/10/13 04:21:18;;;;;;;2.72;2.00;;;;;;;15.88;92.55;99741.50;5097663;28;20097;-73
2023/10/13 04:26:36;;;;;;;2.42;1.20;;;;;;;15.85;92.37;99746.75;5097829;28;20158;-73
2023/10/13 04:29:10;;;;;;;2.90;1.85;;;;;;;15.83;92.59;99755.38;5097570;28;20036;-71
2023/10/13 04:34:27;;;;;;;0.95;0.85;;;;;;;15.79;92.61;99746.88;5097501;28;20047;-74
2023/10/13 04:37:21;;;;;;;0.85;0.85;;;;;;;15.72;92.63;99755.59;5097296;28;20044;-73
2023/10/13 04:39:56;;;;;;;1.88;1.55;;;;;;;15.70;92.69;99754.78;5097085;28;20070;-72
2023/10/13 04:42:39;;;;;;;1.15;1.05;;;;;;;15.66;92.54;99760.88;5097156;28;20048;-72
2023/10/13 04:45:38;;;;;;;2.63;1.52;;;;;;;15.64;92.69;99756.63;5097184;28;20050;-73
2023/10/13 04:48:17;;;;;;;1.83;1.17;;;;;;;15.61;92.77;99757.53;5097078;28;20044;-72
2023/10/13 04:50:50;;;;;;;3.50;2.10;;;;;;;15.65;92.83;99764.31;5096984;28;20093;-74
2023/10/13 04:56:53;;;;;;;3.38;2.15;;;;;;;15.64;93.01;99772.06;5095921;28;20559;-74
2023/10/13 05:05:11;;;;;;;1.70;1.03;;;;;;;15.66;93.49;99781.47;5092798;28;20045;-71
2023/10/13 05:45:24;;;;;;;3.15;2.00;;;;;;;15.69;94.74;99799.38;5063072;28;20056;-71
2023/10/13 05:48:11;;;;;;;3.70;3.03;;;;;;;15.71;94.91;99800.25;5096036;28;20071;-71
2023/10/13 06:30:26;;;;;;;8.07;4.75;;;;;;;16.34;95.82;99818.63;5112158;28;20039;-76
2023/10/13 06:32:55;;;;;;;3.28;2.97;;;;;;;16.40;95.38;99817.66;5100028;28;20115;-74
2023/10/13 06:35:24;;;;;;;1.70;1.30;;;;;;;16.46;95.36;99817.53;5095301;28;20040;-71
2023/10/13 06:37:53;;;;;;;3.65;2.95;;;;;;;16.49;95.08;99818.31;5094889;28;20051;-75
2023/10/13 06:40:25;;;;;;;2.80;2.08;;;;;;;16.51;95.13;99818.25;5101425;28;20059;-76
2023/10/13 06:43:11;;;;;;;1.95;1.55;;;;;;;16.55;95.22;99822.50;5114338;28;20092;-71
2023/10/13 06:45:43;;;;;;;1.52;1.42;;;;;;;16.55;94.85;99817.34;5113426;28;20432;-75
2023/10/13 06:48:14;;;;;;;3.10;2.05;;;;;;;16.58;95.05;99825.84;5115867;28;20043;-72
2023/10/13 06:50:52;;;;;;;1.45;1.30;;;;;;;16.65;95.12;99824.00;5114759;28;20043;-74
2023/10/13 06:53:21;;;;;;;2.17;1.83;;;;;;;16.66;94.62;99828.25;5115387;28;20528;-73
2023/10/13 06:55:58;;;;;;;2.60;1.90;;;;;;;16.63;94.52;99826.59;5113563;28;20071;-71
2023/10/13 06:58:29;;;;;;;3.05;2.35;;;;;;;16.67;94.47;99829.97;5115488;28;20047;-77
2023/10/13 07:00:59;;;;;;;1.95;1.73;;;;;;;16.65;94.75;99839.47;5114730;28;20050;-71
2023/10/13 07:03:27;;;;;;;4.28;2.40;;;;;;;16.68;94.60;99834.22;5115102;28;20549;-72
2023/10/13 07:05:59;;;;;;;3.47;3.03;;;;;;;16.73;94.31;99838.41;5112415;28;20036;-71
2023/10/13 07:08:31;;;;;;;3.72;2.53;;;;;;;16.75;94.26;99851.25;5114823;28;20052;-72
2023/10/13 07:11:05;;;;;;;3.45;2.15;;;;;;;16.80;94.32;99851.97;5114798;28;20044;-75
2023/10/13 07:13:38;;;;;;;2.38;1.98;;;;;;;16.85;94.19;99852.72;5103478;28;20048;-76
2023/10/13 07:16:12;;;;;;;2.70;1.52;;;;;;;16.93;94.04;99861.13;5108953;28;20044;-74
2023/10/13 07:19:04;;;;;;;3.08;2.50;;;;;;;16.97;93.84;99852.44;5114830;28;20043;-73
2023/10/13 07:21:34;;;;;;;3.97;2.85;;;;;;;16.95;93.82;99856.78;5115037;28;20497;-74
2023/10/13 07:24:11;;;;;;;3.25;2.28;;;;;;;17.01;93.58;99863.53;5113585;28;20528;-74
2023/10/13 07:26:45;;;;;;;1.73;1.33;;;;;;;17.07;93.42;99866.81;5093378;28;20130;-75
2023/10/13 07:29:15;;;;;;;3.83;2.65;;;;;;;17.06;93.26;99867.69;5094095;28;20101;-73
2023/10/13 07:31:45;;;;;;;3.03;1.83;;;;;;;17.08;93.20;99860.78;5092300;28;20044;-75
2023/10/13 07:34:24;;;;;;;0.95;0.90;;;;;;;17.13;92.90;99860.66;5108861;28;20046;-73
2023/10/13 07:36:59;;;;;;;2.35;1.80;;;;;;;17.17;93.02;99860.56;5114374;28;20078;-71
2023/10/13 07:39:33;;;;;;;3.78;1.83;;;;;;;17.20;92.65;99863.03;5114499;28;20070;-72
2023/10/13 07:42:07;;;;;;;4.57;2.90;;;;;;;17.15;92.35;99864.91;5114215;28;20055;-72
2023/10/13 07:44:40;;;;;;;3.33;1.40;;;;;;;17.27;92.33;99864.59;5114182;28;20497;-74
2023/10/13 07:47:10;;;;;;;2.78;2.00;;;;;;;17.44;92.30;99859.03;5093012;28;20043;-73
2023/10/13 07:49:40;;;;;;;4.43;1.73;;;;;;;17.54;91.90;99864.81;5093755;28;20123;-71
2023/10/13 07:52:36;;;;;;;1.95;1.70;;;;;;;17.54;91.57;99857.91;5093515;28;20461;-74
2023/10/13 07:55:19;;;;;;;3.88;1.80;;;;;;;17.64;91.24;99855.94;5094005;28;20036;-72
2023/10/13 07:57:54;;;;;;;3.60;2.55;;;;;;;17.70;90.80;99863.53;5093639;28;20048;-75
2023/10/13 08:00:46;;;;;;;2.72;2.33;;;;;;;17.84;90.65;99864.00;5092615;28;20055;-74
2023/10/13 08:03:31;;;;;;;2.58;1.75;;;;;;;17.99;90.22;99856.69;5093363;28;20036;-75
2023/10/13 08:06:06;;;;;;;1.85;1.50;;;;;;;18.13;89.83;99860.59;5093850;28;20143;-72
2023/10/13 08:08:37;;;;;;;1.55;1.30;;;;;;;18.26;89.56;99856.78;5092395;28;20052;-74
2023/10/13 08:11:11;;;;;;;2.50;2.00;;;;;;;18.32;88.85;99851.44;5093146;28;20042;-74
2023/10/13 08:13:46;;;;;;;2.33;1.60;;;;;;;18.37;88.57;99850.41;5092148;28;20048;-74
2023/10/13 08:16:49;;;;;;;2.55;2.28;;;;;;;18.52;87.86;99855.13;5110089;28;20046;-75
2023/10/13 08:19:20;;;;;;;2.15;1.95;;;;;;;18.67;87.24;99864.16;5112950;28;20044;-74
2023/10/13 08:21:57;;;;;;;5.47;2.25;;;;;;;18.79;86.70;99858.63;5114202;28;20071;-75
2023/10/13 08:24:55;;;;;;;1.92;1.67;;;;;;;18.94;86.19;99859.88;5122285;28;20122;-72
2023/10/13 08:32:54;;;;;;;2.65;1.63;;;;;;;19.38;83.60;99852.41;5134250;27;20051;-73
2023/10/13 08:38:13;;;;;;;1.92;1.58;;;;;;;19.45;81.83;99854.78;5113019;28;20127;-70
2023/10/13 08:43:45;;;;;;;2.17;1.98;;;;;;;19.63;80.82;99857.56;5093823;28;20044;-72
2023/10/13 08:46:25;;;;;;;2.08;1.58;;;;;;;19.70;79.83;99846.09;5093533;28;20047;-73
2023/10/13 08:49:13;;;;;;;2.25;1.55;;;;;;;19.83;79.09;99852.53;5093800;28;20055;-71
2023/10/13 08:51:48;;;;;;;1.00;0.87;;;;;;;19.94;78.94;99853.00;5093463;28;20044;-70
2023/10/13 08:54:34;;;;;;;1.58;1.23;;;;;;;20.06;78.60;99849.09;5091662;28;20501;-71
2023/10/13 08:57:29;;;;;;;1.45;1.35;;;;;;;20.01;78.32;99848.47;5093377;28;20374;-70
2023/10/13 09:00:26;;;;;;;1.40;1.25;;;;;;;20.04;78.53;99854.38;5101065;28;20044;-71
2023/10/13 09:08:09;;;;;;;2.85;1.63;;;;;;;20.15;78.40;99853.13;5117137;28;20097;-72
2023/10/13 09:10:44;;;;;;;;;;;;;;;20.29;78.24;99861.25;5111757;28;20054;-73
2023/10/13 09:13:20;;;;;;;1.30;1.10;;;;;;;20.40;78.11;99853.91;5107233;28;19927;-72
2023/10/13 09:21:29;;;;;;;3.22;2.47;;;;;;;20.44;77.31;99850.31;5094851;28;20071;-72
2023/10/13 09:26:38;;;;;;;2.58;2.20;;;;;;;20.59;77.26;99842.78;5105211;28;20040;-72
2023/10/13 09:29:17;;;;;;;2.88;1.98;;;;;;;20.77;77.30;99837.78;5116995;28;20049;-73
2023/10/13 09:31:50;;;;;;;2.25;2.05;;;;;;;20.80;76.71;99833.34;5111413;28;20059;-72
2023/10/13 09:34:28;;;;;;;2.47;1.63;;;;;;;20.79;76.25;99834.22;5115375;28;20051;-72
2023/10/13 09:36:59;;;;;;;1.83;1.58;;;;;;;20.70;75.37;99842.38;5098816;28;20044;-74
2023/10/13 09:39:34;;;;;;;2.47;1.45;;;;;;;20.69;75.38;99853.66;5094939;28;20409;-72
2023/10/13 09:42:03;;;;;;;2.20;1.95;;;;;;;20.69;75.60;99851.91;5095810;28;20044;-72
2023/10/13 09:44:31;;;;;;;;;;;;;;;20.75;75.66;99850.84;5096390;28;20040;-73
2023/10/13 09:47:07;;;;;;;4.00;1.23;;;;;;;20.85;75.48;99846.94;5095747;28;20388;-72
2023/10/13 09:49:45;;;;;;;2.13;1.92;;;;;;;20.90;75.13;99844.19;5096193;28;20085;-72
2023/10/13 09:52:20;;;;;;;2.13;1.92;;;;;;;20.94;75.30;99851.78;5095831;28;20191;-72
2023/10/13 09:55:01;;;;;;;2.00;1.80;;;;;;;20.95;75.29;99848.28;5095796;28;20098;-72
2023/10/13 09:57:36;;;;;;;1.33;0.77;;;;;;;20.95;75.25;99837.88;5110402;28;20043;-73
2023/10/13 10:02:58;;;;;;;4.78;1.83;;;;;;;21.04;75.30;99828.91;5116395;28;20489;-71
2023/10/13 10:05:34;;;;;;;2.88;2.47;;;;;;;21.12;75.18;99838.09;5116062;28;20067;-72
2023/10/13 10:08:09;;;;;;;6.47;2.63;;;;;;;21.17;74.94;99828.34;5114698;28;20043;-73
2023/10/13 10:11:04;;;;;;;1.45;1.35;;;;;;;21.25;74.04;99821.09;5098228;28;20403;-73
2023/10/13 10:13:40;;;;;;;1.88;1.45;;;;;;;21.30;73.93;99829.53;5096081;28;20134;-71
2023/10/13 10:16:14;;;;;;;5.00;2.05;;;;;;;21.34;73.55;99825.91;5094850;28;20551;-73
2023/10/13 10:18:43;;;;;;;2.22;1.83;;;;;;;21.44;73.64;99833.31;5095467;28;20051;-72
2023/10/13 10:21:15;;;;;;;1.83;1.50;;;;;;;21.51;73.23;99826.94;5098329;28;20114;-71
2023/10/13 10:23:53;;;;;;;1.35;1.10;;;;;;;21.57;72.68;99821.50;5112690;28;20047;-73
2023/10/13 10:26:25;;;;;;;2.47;1.50;;;;;;;21.65;72.50;99825.44;5112616;28;20048;-72
2023/10/13 10:28:54;;;;;;;0.73;0.70;;;;;;;21.83;72.33;99818.59;5107087;28;20093;-73
2023/10/13 10:31:34;;;;;;;1.80;1.65;;;;;;;22.03;71.46;99823.75;5098569;28;20568;-72
2023/10/13 10:34:13;;;;;;;1.90;1.63;;;;;;;22.17;70.95;99818.78;5094928;28;20054;-72
2023/10/13 10:36:51;;;;;;;7.13;3.78;;;;;;;22.20;70.46;99823.00;5094259;28;20093;-71
2023/10/13 10:39:21;;;;;;;1.25;1.15;;;;;;;22.16;70.15;99818.84;5094942;28;20402;-71
2023/10/13 10:41:52;;;;;;;3.90;1.63;;;;;;;22.21;69.87;99814.28;5095213;28;20064;-71
2023/10/13 10:44:33;;;;;;;6.00;1.77;;;;;;;22.40;69.69;99815.97;5095133;28;20440;-72
2023/10/13 10:47:19;;;;;;;6.32;2.65;;;;;;;22.66;68.97;99809.56;5094348;28;20538;-70
2023/10/13 10:49:49;;;;;;;2.80;1.90;;;;;;;22.67;68.83;99808.66;5095143;28;20078;-71
2023/10/13 10:52:20;;;;;;;5.18;2.60;;;;;;;22.56;68.53;99811.72;5094701;28;20040;-72
2023/10/13 10:55:00;;;;;;;1.30;1.10;;;;;;;22.48;69.01;99802.59;5094718;28;20059;-73
2023/10/13 10:57:36;;;;;;;6.57;1.50;;;;;;;22.47;68.85;99801.75;5094157;28;20515;-71
2023/10/13 11:00:17;;;;;;;1.42;1.33;;;;;;;22.36;69.00;99798.81;5094836;28;20047;-72
2023/10/13 11:02:55;;;;;;;3.63;1.63;;;;;;;22.31;69.04;99800.81;5094713;28;20048;-70
2023/10/13 11:05:32;;;;;;;2.03;1.87;;;;;;;22.33;68.98;99798.97;5094555;28;20055;-70
2023/10/13 11:08:07;;;;;;;2.47;2.05;;;;;;;22.30;68.88;99793.91;5094579;28;20615;-70
2023/10/13 11:10:46;;;;;;;43.63;21.20;;;;;;;22.30;68.91;99783.50;5103535;28;20042;-70
2023/10/13 11:13:21;;;;;;;4.10;3.72;;;;;;;22.47;68.85;99777.50;5096016;28;20448;-70
2023/10/13 11:15:51;;;;;;;2.72;1.83;;;;;;;22.80;68.34;99780.25;5093818;28;20043;-70
2023/10/13 11:18:33;;;;;;;1.40;1.30;;;;;;;23.03;67.91;99779.97;5094469;28;20032;-70
2023/10/13 11:21:06;;;;;;;6.80;2.78;;;;;;;23.27;67.15;99781.34;5094255;28;20529;-70
2023/10/13 11:23:39;;;;;;;2.33;2.13;;;;;;;23.42;66.88;99782.38;5093654;28;20423;-69
2023/10/13 11:26:08;;;;;;;1.42;1.30;;;;;;;23.56;66.02;99779.88;5094311;28;20048;-69
2023/10/13 11:28:38;;;;;;;1.80;1.67;;;;;;;23.63;65.28;99778.63;5093458;28;20390;-70
2023/10/13 11:31:16;;;;;;;1.65;1.35;;;;;;;23.58;65.01;99778.88;5093872;28;20055;-70
2023/10/13 11:33:50;;;;;;;4.57;2.03;;;;;;;23.55;64.86;99773.81;5113948;28;20120;-69
2023/10/13 11:36:22;;;;;;;1.75;0.85;;;;;;;23.39;65.10;99765.13;5113272;28;20059;-71
2023/10/13 11:38:57;;;;;;;0.95;0.90;;;;;;;23.42;65.61;99767.53;5114663;28;20043;-70
2023/10/13 11:41:33;;;;;;;9.00;2.40;;;;;;;23.38;65.08;99759.97;5113495;28;20055;-70
2023/10/13 11:44:13;;;;;;;1.27;1.17;;;;;;;23.35;65.09;99766.19;5114156;28;20126;-70
2023/10/13 11:49:31;;;;;;;1.80;1.70;;;;;;;23.27;64.36;99752.69;5112856;28;20489;-70
2023/10/13 11:54:43;;;;;;;2.20;1.50;;;;;;;23.19;64.83;99760.06;5093195;28;20539;-70
2023/10/13 11:57:12;;;;;;;4.00;1.70;;;;;;;23.15;64.91;99753.31;5093655;28;20052;-70
2023/10/13 12:05:13;;;;;;;9.48;2.95;;;;;;;23.34;64.34;99741.03;5054484;28;20051;-70
2023/10/13 12:07:51;;;;;;;13.23;1.83;;;;;;;23.36;64.34;99740.97;5093609;28;20119;-70
2023/10/13 12:13:08;;;;;;;1.55;1.23;;;;;;;23.78;63.79;99729.13;5092424;28;20052;-70
2023/10/13 12:15:51;;;;;;;2.20;1.55;;;;;;;24.13;63.17;99723.78;5093435;28;20075;-70
2023/10/13 12:18:23;;;;;;;0.80;0.80;;;;;;;24.34;61.88;99722.59;5093829;28;20406;-70
2023/10/13 12:20:52;;;;;;;4.13;1.27;;;;;;;24.53;61.10;99713.63;5093129;28;20115;-70
2023/10/13 12:23:31;;;;;;;1.08;0.98;;;;;;;24.51;61.32;99719.88;5092741;28;20049;-70
2023/10/13 12:26:06;;;;;;;;;;;;;;;24.56;60.37;99707.41;5093651;28;20052;-70
2023/10/13 12:28:50;;;;;;;1.40;1.30;;;;;;;24.85;60.29;99714.41;5093124;28;19920;-70
2023/10/13 12:31:26;;;;;;;1.52;1.05;;;;;;;25.16;59.55;99709.06;5107698;28;20112;-70
2023/10/13 12:34:06;;;;;;;5.57;1.52;;;;;;;25.23;58.07;99704.31;5112502;28;20093;-70
2023/10/13 12:36:53;;;;;;;2.30;1.92;;;;;;;25.24;58.25;99706.00;5109962;28;20393;-70
2023/10/13 12:50:07;;;;;;;1.05;1.00;;;;;;;25.64;57.95;99678.28;5101612;28;20047;-69
2023/10/13 12:52:36;;;;;;;2.13;1.92;;;;;;;25.52;58.36;99694.72;5097015;28;20098;-70
2023/10/13 12:55:09;;;;;;;2.13;1.45;;;;;;;25.44;58.34;99681.22;5097091;28;20040;-70
2023/10/13 12:57:46;;;;;;;0.65;0.65;;;;;;;25.55;57.50;99673.63;5107578;28;20039;-71
2023/10/13 13:00:23;;;;;;;0.95;0.70;;;;;;;25.70;57.19;99677.88;5117417;28;20044;-70
2023/10/13 13:02:55;;;;;;;5.10;1.85;;;;;;;25.86;57.08;99673.38;5116530;28;20039;-70
2023/10/13 13:05:31;;;;;;;4.35;2.00;;;;;;;25.95;56.59;99667.56;5117234;28;20059;-70
2023/10/13 13:08:00;;;;;;;2.53;1.63;;;;;;;26.10;56.17;99674.44;5115896;28;20082;-70
2023/10/13 13:13:09;;;;;;;1.25;1.15;;;;;;;26.27;56.37;99662.91;5115808;28;20114;-70
2023/10/13 13:15:38;;;;;;;1.08;0.88;;;;;;;26.27;55.83;99663.75;5098638;28;20040;-71
2023/10/13 13:18:12;;;;;;;1.00;0.98;;;;;;;26.28;55.21;99659.31;5096771;28;20505;-71
2023/10/13 13:20:52;;;;;;;1.48;1.38;;;;;;;26.25;55.17;99654.31;5098708;28;20040;-72
2023/10/13 13:23:25;;;;;;;2.03;1.67;;;;;;;26.28;54.92;99654.94;5096777;28;20047;-70
2023/10/13 13:25:58;;;;;;;1.20;0.98;;;;;;;26.23;54.88;99657.00;5096893;28;20068;-70
2023/10/13 13:28:29;;;;;;;0.52;0.52;;;;;;;26.17;54.42;99646.97;5096295;28;20090;-70
2023/10/13 13:30:58;;;;;;;0.80;0.80;;;;;;;26.06;54.51;99649.38;5095352;28;20532;-71
2023/10/13 13:33:33;;;;;;;0.73;0.65;;;;;;;25.90;54.23;99648.69;5096044;28;20048;-70
2023/10/13 13:36:04;;;;;;;3.45;1.40;;;;;;;25.79;53.13;99640.72;5096168;28;20059;-71
2023/10/13 13:38:33;;;;;;;2.03;1.77;;;;;;;25.74;53.41;99642.78;5096040;28;20068;-70
2023/10/13 13:41:09;;;;;;;0.85;0.85;;;;;;;25.66;54.94;99642.41;5096351;28;20095;-70
2023/10/13 13:43:50;;;;;;;1.92;1.50;;;;;;;25.59;55.59;99643.72;5096652;28;20486;-70
2023/10/13 13:46:24;;;;;;;0.82;0.82;;;;;;;25.58;54.89;99636.84;5096252;28;20118;-70
2023/10/13 13:48:58;;;;;;;1.58;0.98;;;;;;;25.61;53.76;99631.38;5095063;28;20472;-70
2023/10/13 13:51:29;;;;;;;0.50;0.50;;;;;;;25.64;54.43;99631.22;5095124;28;20089;-70
2023/10/13 13:53:59;;;;;;;1.13;1.02;;;;;;;25.55;54.10;99626.56;5095845;28;20036;-71
2023/10/13 13:56:38;;;;;;;0.63;0.63;;;;;;;25.58;53.13;99626.38;5094930;28;20048;-70
2023/10/13 13:59:09;;;;;;;1.25;1.15;;;;;;;25.61;53.32;99626.16;5095774;28;20056;-70
2023/10/13 14:01:40;;;;;;;1.30;1.20;;;;;;;25.53;53.90;99631.06;5095742;28;20048;-71
2023/10/13 14:04:09;;;;;;;1.75;1.50;;;;;;;25.42;54.75;99628.22;5095871;28;20075;-70
2023/10/13 14:06:38;;;;;;;0.73;0.73;;;;;;;25.36;55.28;99631.22;5096647;28;20089;-71
2023/10/13 14:09:15;;;;;;;;;;;;;;;25.34;54.97;99627.88;5096251;28;20118;-70
2023/10/13 14:14:33;;;;;;;3.30;1.15;;;;;;;25.24;55.38;99623.19;5095827;28;20074;-70
2023/10/13 14:17:08;;;;;;;2.00;1.13;;;;;;;25.13;55.39;99623.03;5095681;28;20051;-70
2023/10/13 14:19:40;;;;;;;1.58;1.10;;;;;;;24.94;55.69;99619.84;5095693;28;20387;-71
2023/10/13 14:22:12;;;;;;;2.17;1.05;;;;;;;24.85;56.57;99625.63;5095553;28;20090;-70
2023/10/13 14:24:47;;;;;;;0.73;0.70;;;;;;;24.69;57.50;99619.59;5095292;28;20068;-70
2023/10/13 14:27:20;;;;;;;0.95;0.95;;;;;;;24.56;58.11;99621.25;5095293;28;20079;-70
2023/10/13 14:29:53;;;;;;;1.00;0.90;;;;;;;24.39;59.75;99610.97;5095235;28;20469;-71
2023/10/13 14:32:27;;;;;;;2.95;1.80;;;;;;;24.27;60.06;99616.88;5095230;28;20059;-70
2023/10/13 14:34:57;;;;;;;1.05;0.95;;;;;;;24.22;60.16;99609.34;5095498;28;20070;-70
2023/10/13 14:37:30;;;;;;;1.40;1.02;;;;;;;24.12;60.60;99608.16;5094063;28;20162;-70
2023/10/13 14:40:00;;;;;;;0.63;0.63;;;;;;;24.06;61.40;99607.66;5095285;28;20043;-70
2023/10/13 14:42:35;;;;;;;0.88;0.82;;;;;;;23.97;61.90;99609.84;5095044;28;20040;-70
2023/10/13 14:45:12;;;;;;;2.10;1.83;;;;;;;23.83;63.36;99606.34;5095174;28;20040;-70
2023/10/13 14:47:43;;;;;;;0.75;0.75;;;;;;;23.70;63.72;99611.41;5095491;28;20081;-71